createdAt,value
2022-08-26T00:02:11.729Z,23.73
2022-08-26T00:04:41.121Z,23.70
2022-08-26T00:07:09.332Z,23.70
2022-08-26T00:09:40.174Z,23.70
2022-08-26T00:12:09.425Z,23.72
2022-08-26T00:14:40.760Z,23.66
2022-08-26T00:17:08.783Z,23.56
2022-08-26T00:19:37.345Z,23.48
2022-08-26T00:22:07.459Z,23.43
2022-08-26T00:24:35.536Z,23.42
2022-08-26T00:27:03.507Z,23.45
2022-08-26T00:29:34.782Z,23.48
2022-08-26T00:32:04.102Z,23.50
2022-08-26T00:34:32.081Z,23.45
2022-08-26T00:36:59.979Z,23.44
2022-08-26T00:39:29.390Z,23.46
2022-08-26T00:41:57.282Z,23.37
2022-08-26T00:44:25.263Z,23.38
2022-08-26T00:46:58.692Z,23.45
2022-08-26T00:49:35.714Z,23.30
2022-08-26T00:52:06.547Z,23.27
2022-08-26T00:54:46.949Z,23.31
2022-08-26T00:57:18.033Z,23.24
2022-08-26T00:59:46.896Z,23.22
2022-08-26T01:02:21.175Z,23.22
2022-08-26T01:04:54.427Z,23.16
2022-08-26T01:07:25.713Z,23.16
2022-08-26T01:09:55.833Z,23.09
2022-08-26T01:12:25.079Z,23.14
2022-08-26T01:14:53.425Z,23.14
2022-08-26T01:17:21.597Z,23.11
2022-08-26T01:19:53.724Z,23.09
2022-08-26T01:22:26.725Z,23.07
2022-08-26T01:24:58.466Z,23.00
2022-08-26T01:27:32.424Z,22.91
2022-08-26T01:30:02.248Z,22.93
2022-08-26T01:32:32.913Z,23.00
2022-08-26T01:35:02.031Z,22.99
2022-08-26T01:37:36.887Z,22.94
2022-08-26T01:40:14.921Z,23.00
2022-08-26T01:42:47.124Z,22.93
2022-08-26T01:45:19.715Z,22.96
2022-08-26T01:47:49.801Z,22.89
2022-08-26T01:50:30.627Z,22.87
2022-08-26T01:53:02.255Z,22.83
2022-08-26T01:55:33.347Z,22.74
2022-08-26T01:58:06.603Z,22.71
2022-08-26T02:00:35.977Z,22.80
2022-08-26T02:03:18.160Z,22.80
2022-08-26T02:05:48.844Z,22.80
2022-08-26T02:08:24.869Z,22.67
2022-08-26T02:10:55.357Z,22.61
2022-08-26T02:13:29.137Z,22.65
2022-08-26T02:15:57.816Z,22.62
2022-08-26T02:18:26.848Z,22.63
2022-08-26T02:20:57.455Z,22.57
2022-08-26T02:23:26.145Z,22.57
2022-08-26T02:25:59.112Z,22.59
2022-08-26T02:28:29.855Z,22.57
2022-08-26T02:30:57.833Z,22.52
2022-08-26T02:33:29.329Z,22.50
2022-08-26T02:35:57.401Z,22.47
2022-08-26T02:38:26.137Z,22.48
2022-08-26T02:40:55.743Z,22.42
2022-08-26T02:43:31.710Z,22.45
2022-08-26T02:46:02.343Z,22.50
2022-08-26T02:48:31.119Z,22.53
2022-08-26T02:51:00.936Z,22.46
2022-08-26T02:53:31.747Z,22.48
2022-08-26T02:56:01.782Z,22.48
2022-08-26T02:58:32.603Z,22.43
2022-08-26T03:01:01.511Z,22.41
2022-08-26T03:03:30.211Z,22.46
2022-08-26T03:05:58.959Z,22.44
2022-08-26T03:08:26.967Z,22.41
2022-08-26T03:10:55.361Z,22.37
2022-08-26T03:13:25.282Z,22.41
2022-08-26T03:15:53.367Z,22.42
2022-08-26T03:18:21.446Z,22.35
2022-08-26T03:20:49.515Z,22.36
2022-08-26T03:23:17.544Z,22.31
2022-08-26T03:25:50.638Z,22.20
2022-08-26T03:28:19.353Z,22.15
2022-08-26T03:30:49.304Z,22.18
2022-08-26T03:33:18.075Z,22.09
2022-08-26T03:35:50.487Z,22.11
2022-08-26T03:38:20.036Z,22.10
2022-08-26T03:40:48.052Z,22.13
2022-08-26T03:43:17.138Z,22.07
2022-08-26T03:45:45.983Z,22.04
2022-08-26T03:48:15.418Z,22.00
2022-08-26T03:50:43.963Z,22.07
2022-08-26T03:53:12.799Z,22.13
2022-08-26T03:55:43.194Z,22.11
2022-08-26T03:58:11.759Z,22.09
2022-08-26T04:00:39.818Z,22.10
2022-08-26T04:03:09.683Z,22.11
2022-08-26T04:05:39.833Z,22.12
2022-08-26T04:08:08.118Z,21.99
2022-08-26T04:10:38.464Z,22.00
2022-08-26T04:13:06.617Z,22.02
2022-08-26T04:15:34.591Z,22.05
2022-08-26T04:18:02.508Z,22.11
2022-08-26T04:20:32.097Z,22.13
2022-08-26T04:23:01.648Z,22.13
2022-08-26T04:25:29.833Z,22.10
2022-08-26T04:27:58.086Z,22.08
2022-08-26T04:30:26.264Z,22.10
2022-08-26T04:32:54.147Z,22.16
2022-08-26T04:35:25.735Z,22.23
2022-08-26T04:37:54.328Z,22.21
2022-08-26T04:40:24.126Z,22.15
2022-08-26T04:42:53.867Z,22.22
2022-08-26T04:45:22.748Z,22.25
2022-08-26T04:47:54.757Z,22.24
2022-08-26T04:50:23.643Z,22.28
2022-08-26T04:52:52.880Z,22.22
2022-08-26T04:55:20.976Z,22.24
2022-08-26T04:57:54.672Z,22.16
2022-08-26T05:00:23.241Z,22.17
2022-08-26T05:02:51.491Z,22.16
2022-08-26T05:05:19.553Z,22.27
2022-08-26T05:07:49.930Z,22.29
2022-08-26T05:10:17.986Z,22.42
2022-08-26T05:12:46.585Z,22.45
2022-08-26T05:15:16.020Z,22.35
2022-08-26T05:17:44.397Z,22.39
2022-08-26T05:20:13.046Z,22.48
2022-08-26T05:22:40.975Z,22.52
2022-08-26T05:25:09.683Z,22.55
2022-08-26T05:27:46.180Z,22.59
2022-08-26T05:30:15.847Z,22.59
2022-08-26T05:32:44.024Z,22.69
2022-08-26T05:35:12.254Z,22.71
2022-08-26T05:37:40.341Z,22.78
2022-08-26T05:40:09.461Z,22.80
2022-08-26T05:42:38.629Z,22.84
2022-08-26T05:45:07.726Z,22.98
2022-08-26T05:47:37.302Z,22.98
2022-08-26T05:50:06.923Z,23.04
2022-08-26T05:52:35.368Z,23.02
2022-08-26T05:55:04.430Z,23.13
2022-08-26T05:57:32.494Z,23.22
2022-08-26T06:00:00.633Z,23.28
2022-08-26T06:02:30.225Z,23.34
2022-08-26T06:04:59.747Z,23.41
2022-08-26T06:07:48.397Z,23.44
2022-08-26T06:10:33.045Z,23.49
2022-08-26T06:13:09.298Z,23.37
2022-08-26T06:15:45.568Z,23.45
2022-08-26T06:18:16.133Z,23.53
2022-08-26T06:20:56.821Z,23.60
2022-08-26T06:23:43.675Z,23.75
2022-08-26T06:26:12.386Z,23.82
2022-08-26T06:28:40.524Z,23.72
2022-08-26T06:31:11.651Z,23.89
2022-08-26T06:33:39.740Z,23.72
2022-08-26T06:36:09.514Z,23.80
2022-08-26T06:38:37.790Z,23.97
2022-08-26T06:41:10.754Z,24.14
2022-08-26T06:43:39.611Z,23.98
2022-08-26T06:46:10.471Z,24.07
2022-08-26T06:48:40.809Z,24.17
2022-08-26T06:51:13.459Z,24.28
2022-08-26T06:53:42.626Z,24.33
2022-08-26T06:56:11.958Z,24.19
2022-08-26T06:58:41.980Z,24.34
2022-08-26T07:01:18.206Z,24.53
2022-08-26T07:03:48.355Z,24.78
2022-08-26T07:06:19.491Z,24.79
2022-08-26T07:08:47.928Z,24.96
2022-08-26T07:11:16.565Z,26.06
2022-08-26T07:13:44.849Z,27.15
2022-08-26T07:16:17.619Z,28.24
2022-08-26T07:18:48.579Z,28.78
2022-08-26T07:21:19.181Z,29.02
2022-08-26T07:23:47.292Z,30.11
2022-08-26T07:26:19.949Z,31.33
2022-08-26T07:28:50.596Z,31.54
2022-08-26T07:31:23.988Z,31.58
2022-08-26T07:33:52.514Z,32.75
2022-08-26T07:36:24.571Z,33.69
2022-08-26T07:38:53.370Z,34.02
2022-08-26T07:41:24.245Z,34.43
2022-08-26T07:43:52.380Z,35.11
2022-08-26T07:46:27.190Z,35.09
2022-08-26T07:48:56.513Z,35.08
2022-08-26T07:51:27.002Z,35.09
2022-08-26T07:53:56.171Z,35.67
2022-08-26T07:56:24.450Z,35.74
2022-08-26T07:58:53.895Z,36.00
2022-08-26T08:01:23.898Z,36.04
2022-08-26T08:03:53.384Z,36.64
2022-08-26T08:06:22.413Z,36.83
2022-08-26T08:08:57.268Z,37.07
2022-08-26T08:11:27.229Z,37.65
2022-08-26T08:13:56.716Z,36.75
2022-08-26T08:16:26.286Z,37.13
2022-08-26T08:18:54.673Z,37.43
2022-08-26T08:21:24.430Z,37.64
2022-08-26T08:23:54.110Z,38.03
2022-08-26T08:26:24.821Z,37.97
2022-08-26T08:28:55.841Z,37.76
2022-08-26T08:31:54.272Z,37.93
2022-08-26T08:34:14.004Z,38.32
2022-08-26T08:36:41.888Z,38.18
2022-08-26T08:39:10.699Z,37.57
2022-08-26T08:41:54.867Z,36.45
2022-08-26T08:47:02.284Z,34.07
2022-08-26T08:49:31.618Z,33.34
2022-08-26T08:52:05.704Z,34.01
2022-08-26T08:54:34.254Z,33.97
2022-08-26T08:57:12.710Z,33.40
2022-08-26T08:59:47.580Z,32.71
2022-08-26T09:02:24.476Z,32.79
2022-08-26T09:05:04.511Z,33.83
2022-08-26T09:07:37.539Z,33.60
2022-08-26T09:10:17.296Z,32.79
2022-08-26T09:12:48.750Z,32.40
2022-08-26T09:15:20.145Z,32.80
2022-08-26T09:17:57.464Z,32.35
2022-08-26T09:20:36.323Z,32.53
2022-08-26T09:23:05.220Z,34.14
2022-08-26T09:25:48.046Z,33.56
2022-08-26T09:28:21.477Z,34.20
2022-08-26T09:31:07.915Z,34.28
2022-08-26T09:33:39.543Z,33.78
2022-08-26T09:36:22.872Z,34.01
2022-08-26T09:38:54.019Z,33.96
2022-08-26T09:41:26.651Z,33.66
2022-08-26T09:44:16.263Z,33.33
2022-08-26T09:46:48.412Z,32.74
2022-08-26T09:49:35.595Z,32.56
2022-08-26T09:52:22.047Z,32.84
2022-08-26T09:55:03.453Z,32.57
2022-08-26T09:57:33.438Z,32.02
2022-08-26T10:00:23.760Z,31.83
2022-08-26T10:02:56.043Z,31.70
2022-08-26T10:05:34.041Z,31.52
2022-08-26T10:08:18.449Z,31.37
2022-08-26T10:10:47.484Z,31.28
2022-08-26T10:13:25.226Z,31.16
2022-08-26T10:16:01.675Z,31.23
2022-08-26T10:18:34.105Z,31.45
2022-08-26T10:21:07.540Z,31.53
2022-08-26T10:26:14.016Z,31.84
2022-08-26T10:28:47.110Z,32.09
2022-08-26T10:31:28.276Z,32.22
2022-08-26T10:34:00.231Z,32.01
2022-08-26T10:37:10.778Z,32.08
2022-08-26T10:39:42.873Z,32.41
2022-08-26T10:42:18.735Z,32.50
2022-08-26T10:44:51.735Z,32.73
2022-08-26T10:47:27.276Z,32.48
2022-08-26T10:50:00.454Z,32.12
2022-08-26T10:52:42.125Z,31.62
2022-08-26T10:55:17.556Z,31.37
2022-08-26T10:57:57.649Z,31.29
2022-08-26T11:00:50.344Z,31.25
2022-08-26T11:03:37.889Z,31.32
2022-08-26T11:06:26.966Z,31.09
2022-08-26T11:08:57.004Z,31.15
2022-08-26T11:11:50.694Z,31.29
2022-08-26T11:14:53.093Z,31.21
2022-08-26T11:17:56.748Z,31.16
2022-08-26T11:20:39.316Z,31.11
2022-08-26T11:23:38.575Z,31.01
2022-08-26T11:26:36.307Z,31.01
2022-08-26T11:29:12.251Z,30.95
2022-08-26T11:31:57.098Z,30.98
2022-08-26T11:34:56.311Z,31.05
2022-08-26T11:37:33.212Z,31.07
2022-08-26T11:40:04.094Z,31.05
2022-08-26T11:42:41.635Z,30.84
2022-08-26T11:45:22.111Z,30.69
2022-08-26T11:47:50.276Z,30.79
2022-08-26T11:50:23.460Z,30.94
2022-08-26T11:53:06.309Z,31.01
2022-08-26T11:55:42.492Z,31.09
2022-08-26T11:58:13.842Z,31.20
2022-08-26T12:00:52.414Z,31.13
2022-08-26T12:03:24.164Z,30.91
2022-08-26T12:05:54.325Z,30.74
2022-08-26T12:08:28.716Z,30.91
2022-08-26T12:11:03.971Z,30.60
2022-08-26T12:13:32.966Z,30.59
2022-08-26T12:16:02.685Z,30.51
2022-08-26T12:18:34.575Z,30.49
2022-08-26T12:21:13.405Z,30.50
2022-08-26T12:23:46.738Z,30.55
2022-08-26T12:26:22.566Z,30.62
2022-08-26T12:28:54.736Z,30.72
2022-08-26T12:31:27.255Z,30.83
2022-08-26T12:33:59.024Z,30.97
2022-08-26T12:36:31.643Z,31.06
2022-08-26T12:39:09.465Z,31.06
2022-08-26T12:41:48.105Z,31.15
2022-08-26T12:44:53.916Z,31.32
2022-08-26T12:47:33.850Z,31.48
2022-08-26T12:50:18.316Z,31.56
2022-08-26T12:52:58.281Z,31.60
2022-08-26T12:55:37.820Z,31.65
2022-08-26T12:58:24.037Z,31.87
2022-08-26T13:00:54.054Z,31.88
2022-08-26T13:03:46.556Z,31.99
2022-08-26T13:06:18.775Z,31.89
2022-08-26T13:08:48.111Z,31.77
2022-08-26T13:11:20.533Z,31.55
2022-08-26T13:13:51.893Z,31.65
2022-08-26T13:16:22.326Z,31.66
2022-08-26T13:18:52.825Z,31.74
2022-08-26T13:21:23.308Z,31.74
2022-08-26T13:23:52.527Z,31.51
2022-08-26T13:26:23.014Z,31.55
2022-08-26T13:29:01.640Z,31.57
2022-08-26T13:31:32.080Z,31.73
2022-08-26T13:34:00.169Z,31.69
2022-08-26T13:36:28.819Z,31.66
2022-08-26T13:38:56.757Z,31.69
2022-08-26T13:41:29.617Z,31.62
2022-08-26T13:43:58.925Z,31.39
2022-08-26T13:46:28.478Z,31.19
2022-08-26T13:48:56.948Z,31.11
2022-08-26T13:51:25.194Z,31.02
2022-08-26T13:53:54.418Z,30.94
2022-08-26T13:56:22.979Z,30.77
2022-08-26T13:58:52.385Z,30.65
2022-08-26T14:01:20.652Z,30.47
2022-08-26T14:03:48.780Z,30.48
2022-08-26T14:06:17.386Z,30.34
2022-08-26T14:08:45.967Z,30.28
2022-08-26T14:11:14.054Z,30.42
2022-08-26T14:13:42.202Z,30.40
2022-08-26T14:16:18.636Z,30.38
2022-08-26T14:18:50.605Z,30.42
2022-08-26T14:21:19.626Z,30.50
2022-08-26T14:23:47.619Z,30.66
2022-08-26T14:26:29.452Z,30.79
2022-08-26T14:28:59.011Z,30.73
2022-08-26T14:31:30.176Z,30.90
2022-08-26T14:33:59.533Z,31.08
2022-08-26T14:36:32.113Z,30.91
2022-08-26T14:39:03.103Z,30.97
2022-08-26T14:41:32.021Z,30.84
2022-08-26T14:44:02.302Z,30.87
2022-08-26T14:46:34.708Z,30.97
2022-08-26T14:49:05.223Z,31.11
2022-08-26T14:51:35.374Z,31.02
2022-08-26T14:54:16.216Z,31.21
2022-08-26T14:56:48.666Z,31.40
2022-08-26T14:59:19.001Z,31.42
2022-08-26T15:01:48.770Z,31.45
2022-08-26T15:04:16.992Z,31.47
2022-08-26T15:06:45.173Z,31.47
2022-08-26T15:09:13.870Z,31.44
2022-08-26T15:11:41.831Z,31.41
2022-08-26T15:14:18.975Z,31.27
2022-08-26T15:16:49.644Z,31.37
2022-08-26T15:19:18.080Z,31.40
2022-08-26T15:21:47.416Z,31.53
2022-08-26T15:24:16.576Z,31.44
2022-08-26T15:26:45.307Z,31.39
2022-08-26T15:29:13.287Z,31.29
2022-08-26T15:31:41.779Z,30.80
2022-08-26T15:34:16.643Z,30.47
2022-08-26T15:36:46.508Z,30.15
2022-08-26T15:39:16.281Z,29.67
2022-08-26T15:41:44.218Z,29.26
2022-08-26T15:44:14.032Z,29.12
2022-08-26T15:46:42.416Z,28.78
2022-08-26T15:49:17.491Z,28.78
2022-08-26T15:51:47.984Z,28.68
2022-08-26T15:54:17.114Z,28.75
2022-08-26T15:56:45.554Z,28.64
2022-08-26T15:59:18.853Z,28.63
2022-08-26T16:01:47.807Z,28.70
2022-08-26T16:04:20.273Z,28.83
2022-08-26T16:06:54.350Z,28.72
2022-08-26T16:09:26.500Z,28.63
2022-08-26T16:11:55.859Z,28.55
2022-08-26T16:14:24.106Z,28.63
2022-08-26T16:16:52.390Z,28.46
2022-08-26T16:19:22.261Z,28.52
2022-08-26T16:21:51.602Z,28.54
2022-08-26T16:24:24.865Z,28.41
2022-08-26T16:26:56.013Z,28.26
2022-08-26T16:29:24.585Z,28.06
2022-08-26T16:31:54.857Z,28.08
2022-08-26T16:34:24.433Z,28.01
2022-08-26T16:36:53.049Z,27.94
2022-08-26T16:39:20.987Z,27.83
2022-08-26T16:41:49.232Z,27.72
2022-08-26T16:44:17.437Z,27.79
2022-08-26T16:46:45.629Z,27.72
2022-08-26T16:49:13.709Z,27.63
2022-08-26T16:51:43.047Z,27.59
2022-08-26T16:54:11.005Z,27.65
2022-08-26T16:56:39.351Z,27.52
2022-08-26T16:59:09.548Z,27.44
2022-08-26T17:01:37.586Z,27.32
2022-08-26T17:04:05.897Z,27.37
2022-08-26T17:06:34.095Z,27.38
2022-08-26T17:09:03.485Z,27.37
2022-08-26T17:11:31.596Z,27.30
2022-08-26T17:13:59.628Z,27.22
2022-08-26T17:16:27.784Z,27.20
2022-08-26T17:18:59.041Z,26.99
2022-08-26T17:21:29.804Z,26.75
2022-08-26T17:23:57.744Z,26.39
2022-08-26T17:26:27.730Z,26.24
2022-08-26T17:28:55.991Z,26.22
2022-08-26T17:31:25.087Z,26.18
2022-08-26T17:33:54.252Z,26.13
2022-08-26T17:36:27.951Z,26.04
2022-08-26T17:38:57.657Z,26.07
2022-08-26T17:41:27.898Z,26.01
2022-08-26T17:43:56.248Z,25.93
2022-08-26T17:46:25.440Z,25.88
2022-08-26T17:48:53.664Z,25.93
2022-08-26T17:51:22.704Z,25.89
2022-08-26T17:53:51.639Z,25.72
2022-08-26T17:56:23.940Z,25.66
2022-08-26T17:58:55.150Z,25.71
2022-08-26T18:01:26.857Z,25.55
2022-08-26T18:04:00.112Z,25.52
2022-08-26T18:06:30.643Z,25.29
2022-08-26T18:08:59.350Z,25.23
2022-08-26T18:11:28.350Z,25.18
2022-08-26T18:13:58.048Z,25.08
2022-08-26T18:16:26.174Z,25.04
2022-08-26T18:18:54.405Z,24.94
2022-08-26T18:21:24.094Z,24.96
2022-08-26T18:23:53.202Z,25.00
2022-08-26T18:26:23.982Z,24.97
2022-08-26T18:28:52.031Z,24.91
2022-08-26T18:31:21.687Z,24.86
2022-08-26T18:33:50.080Z,24.81
2022-08-26T18:36:21.806Z,24.78
2022-08-26T18:38:51.375Z,24.69
2022-08-26T18:41:22.976Z,24.58
2022-08-26T18:43:53.037Z,24.49
2022-08-26T18:46:26.209Z,24.47
2022-08-26T18:48:56.844Z,24.50
2022-08-26T18:51:27.233Z,24.52
2022-08-26T18:53:55.099Z,24.58
2022-08-26T18:56:23.789Z,24.55
2022-08-26T18:58:52.179Z,24.52
2022-08-26T19:01:25.430Z,24.47
2022-08-26T19:03:57.139Z,24.44
2022-08-26T19:06:26.482Z,24.44
2022-08-26T19:08:54.832Z,24.46
2022-08-26T19:11:32.501Z,24.40
2022-08-26T19:14:06.489Z,24.35
2022-08-26T19:16:35.112Z,24.34
2022-08-26T19:19:05.517Z,24.37
2022-08-26T19:21:35.232Z,24.35
2022-08-26T19:24:05.574Z,24.32
2022-08-26T19:26:35.017Z,24.37
2022-08-26T19:29:03.266Z,24.23
2022-08-26T19:31:31.266Z,24.22
2022-08-26T19:33:59.544Z,24.15
2022-08-26T19:36:29.560Z,24.11
2022-08-26T19:38:58.184Z,24.12
2022-08-26T19:41:36.811Z,24.07
2022-08-26T19:44:07.553Z,23.94
2022-08-26T19:46:35.886Z,23.92
2022-08-26T19:49:04.604Z,23.90
2022-08-26T19:51:35.640Z,23.86
2022-08-26T19:54:04.412Z,23.83
2022-08-26T19:56:32.877Z,23.79
2022-08-26T19:59:01.483Z,23.74
2022-08-26T20:01:29.473Z,23.61
2022-08-26T20:03:57.540Z,23.58
2022-08-26T20:06:25.717Z,23.54
2022-08-26T20:08:55.043Z,23.50
2022-08-26T20:11:24.920Z,23.47
2022-08-26T20:13:52.928Z,23.41
2022-08-26T20:16:21.108Z,23.41
2022-08-26T20:19:06.354Z,23.37
2022-08-26T20:21:38.118Z,23.38
2022-08-26T20:24:10.112Z,23.31
2022-08-26T20:26:40.485Z,23.39
2022-08-26T20:29:10.722Z,23.48
2022-08-26T20:31:39.159Z,23.47
2022-08-26T20:34:07.871Z,23.36
2022-08-26T20:36:36.180Z,23.49
2022-08-26T20:39:05.223Z,23.56
2022-08-26T20:41:34.636Z,23.56
2022-08-26T20:44:03.480Z,23.48
2022-08-26T20:46:31.489Z,23.48
2022-08-26T20:48:59.518Z,23.48
2022-08-26T20:51:29.227Z,23.42
2022-08-26T20:53:57.132Z,23.52
2022-08-26T20:56:25.686Z,23.59
2022-08-26T20:58:58.502Z,23.54
2022-08-26T21:01:30.524Z,23.52
2022-08-26T21:03:58.961Z,23.51
2022-08-26T21:06:27.112Z,23.51
2022-08-26T21:08:55.492Z,23.47
2022-08-26T21:11:25.343Z,23.44
2022-08-26T21:14:16.730Z,23.41
2022-08-26T21:16:44.091Z,23.41
2022-08-26T21:19:14.712Z,23.37
2022-08-26T21:21:43.129Z,23.41
2022-08-26T21:24:11.365Z,23.41
2022-08-26T21:26:39.367Z,23.41
2022-08-26T21:29:09.881Z,23.40
2022-08-26T21:31:43.575Z,23.33
2022-08-26T21:34:13.554Z,23.30
2022-08-26T21:36:41.886Z,23.29
2022-08-26T21:39:12.038Z,23.26
2022-08-26T21:41:41.793Z,23.28
2022-08-26T21:44:11.771Z,23.16
2022-08-26T21:46:39.932Z,23.15
2022-08-26T21:49:10.289Z,23.12
2022-08-26T21:51:40.920Z,23.05
2022-08-26T21:54:11.248Z,22.96
2022-08-26T21:56:42.319Z,22.94
2022-08-26T21:59:12.804Z,22.97
2022-08-26T22:01:40.979Z,23.01
2022-08-26T22:04:10.552Z,23.03
2022-08-26T22:06:43.326Z,22.97
2022-08-26T22:09:12.112Z,22.96
2022-08-26T22:11:40.503Z,22.95
2022-08-26T22:14:08.610Z,22.95
2022-08-26T22:16:38.206Z,22.93
2022-08-26T22:19:06.549Z,22.89
2022-08-26T22:21:35.735Z,22.91
2022-08-26T22:24:06.234Z,22.90
2022-08-26T22:26:34.595Z,22.91
2022-08-26T22:29:04.895Z,22.84
2022-08-26T22:31:37.542Z,22.75
2022-08-26T22:34:09.066Z,22.76
2022-08-26T22:36:42.941Z,22.77
2022-08-26T22:39:13.108Z,22.69
2022-08-26T22:41:42.107Z,22.66
2022-08-26T22:44:10.335Z,22.62
2022-08-26T22:46:38.754Z,22.59
2022-08-26T22:49:09.797Z,22.70
2022-08-26T22:51:37.838Z,22.71
2022-08-26T22:54:06.687Z,22.71
2022-08-26T22:56:34.929Z,22.62
2022-08-26T22:59:03.049Z,22.56
2022-08-26T23:01:31.777Z,22.59
2022-08-26T23:03:59.921Z,22.53
2022-08-26T23:06:29.231Z,22.46
2022-08-26T23:08:57.259Z,22.51
2022-08-26T23:11:25.242Z,22.50
2022-08-26T23:13:53.315Z,22.47
2022-08-26T23:16:21.462Z,22.34
2022-08-26T23:18:50.513Z,22.43
2022-08-26T23:21:18.415Z,22.45
2022-08-26T23:23:47.656Z,22.32
2022-08-26T23:26:17.763Z,22.33
2022-08-26T23:28:45.917Z,22.20
2022-08-26T23:31:14.357Z,22.22
2022-08-26T23:33:59.787Z,22.25
2022-08-26T23:36:28.056Z,22.26
2022-08-26T23:39:00.225Z,22.31
2022-08-26T23:41:28.501Z,22.23
2022-08-26T23:43:58.695Z,22.31
2022-08-26T23:46:28.591Z,22.32
2022-08-26T23:48:56.552Z,22.28
2022-08-26T23:51:41.912Z,22.33
2022-08-26T23:54:11.405Z,22.35
2022-08-26T23:56:39.528Z,22.34
2022-08-26T23:59:08.012Z,22.31
